Time;durP1;ratioP1;P1;durP2;ratioP2;P2;SDS_P1;SDS_P2;PMS_P1;PMS_P2;Temp;Humidity;BMP_temperature;BMP_pressure;BME280_temperature;BME280_humidity;BME280_pressure;Samples;Min_cycle;Max_cycle;Signal;HPM_P1;HPM_P2
2023/03/05 00:01:17;;;;;;;12.48;1.98;;;;;;;8.50;52.45;102181.59;5063503;27;123760;-63
2023/03/05 00:03:45;;;;;;;10.27;1.70;;;;;;;8.48;52.82;102178.09;5071679;27;124217;-63
2023/03/05 00:06:12;;;;;;;8.90;1.83;;;;;;;8.47;52.61;102181.63;5064420;27;109038;-63
2023/03/05 00:08:39;;;;;;;10.18;1.77;;;;;;;8.45;52.98;102183.41;5067990;27;108792;-63
2023/03/05 00:11:09;;;;;;;6.65;1.90;;;;;;;8.43;53.01;102174.66;5065244;27;123426;-63
2023/03/05 00:13:38;;;;;;;6.45;1.52;;;;;;;8.41;52.88;102176.41;5048946;27;124483;-63
2023/03/05 00:16:10;;;;;;;6.93;1.63;;;;;;;8.41;53.15;102181.69;5071374;27;108919;-62
2023/03/05 00:18:37;;;;;;;8.68;2.05;;;;;;;8.42;53.02;102172.88;5051406;27;108084;-63
2023/03/05 00:21:17;;;;;;;10.50;2.17;;;;;;;8.39;53.14;102172.00;5049353;27;123927;-63
2023/03/05 00:23:44;;;;;;;10.50;2.00;;;;;;;8.41;52.83;102166.72;5071885;27;124676;-63
2023/03/05 00:26:12;;;;;;;13.43;2.08;;;;;;;8.41;53.01;102165.84;5063669;27;109232;-63
2023/03/05 00:28:40;;;;;;;11.63;2.35;;;;;;;8.41;53.10;102165.84;5065422;27;109126;-63
2023/03/05 00:31:07;;;;;;;11.60;2.50;;;;;;;8.41;53.23;102164.06;5045031;27;123453;-63
2023/03/05 00:33:34;;;;;;;9.50;2.70;;;;;;;8.42;53.29;102164.97;5051968;27;122800;-63
2023/03/05 00:36:05;;;;;;;14.15;3.65;;;;;;;8.43;53.29;102164.09;5038143;27;108768;-63
2023/03/05 00:38:34;;;;;;;15.88;4.03;;;;;;;8.42;53.10;102157.03;5062268;27;108967;-63
2023/03/05 00:41:03;;;;;;;13.88;4.30;;;;;;;8.41;53.26;102155.28;5065791;27;125323;-63
2023/03/05 00:43:30;;;;;;;14.50;4.45;;;;;;;8.39;53.12;102156.16;5061832;27;124461;-63
2023/03/05 00:45:58;;;;;;;19.15;4.75;;;;;;;8.42;53.37;102157.03;5044501;27;109530;-63
2023/03/05 00:48:25;;;;;;;13.25;3.47;;;;;;;8.43;53.09;102153.53;5041222;27;108815;-63
2023/03/05 00:50:52;;;;;;;10.48;2.63;;;;;;;8.43;53.43;102150.88;5046940;27;123695;-63
2023/03/05 00:53:20;;;;;;;9.20;2.17;;;;;;;8.44;53.07;102144.69;5069431;27;123808;-62
2023/03/05 00:55:47;;;;;;;10.30;2.20;;;;;;;8.44;53.28;102139.41;5044608;27;109133;-63
2023/03/05 00:58:14;;;;;;;9.50;2.00;;;;;;;8.43;53.17;102137.69;5063608;27;109102;-62
2023/03/05 01:00:42;;;;;;;8.25;1.92;;;;;;;8.42;53.27;102138.56;5048863;27;122910;-62
2023/03/05 01:03:10;;;;;;;11.75;2.10;;;;;;;8.43;53.19;102137.69;5063121;27;124717;-62
2023/03/05 01:05:37;;;;;;;8.10;2.15;;;;;;;8.44;53.50;102134.13;5069412;27;109188;-62
2023/03/05 01:08:04;;;;;;;11.20;1.90;;;;;;;8.43;53.44;102132.41;5064494;27;109666;-63
2023/03/05 01:10:31;;;;;;;9.02;2.42;;;;;;;8.39;53.40;102127.13;5048797;27;123095;-63
2023/03/05 01:12:59;;;;;;;10.85;2.22;;;;;;;8.37;53.34;102113.06;5050386;27;122709;-62
2023/03/05 01:15:26;;;;;;;13.05;2.28;;;;;;;8.36;53.56;102116.63;5048981;27;108324;-63
2023/03/05 01:17:53;;;;;;;5.45;1.80;;;;;;;8.34;53.46;102113.16;5050370;27;107806;-63
2023/03/05 01:20:22;;;;;;;10.38;2.25;;;;;;;8.33;53.53;102121.94;5049268;27;124423;-62
2023/03/05 01:22:49;;;;;;;11.73;1.85;;;;;;;8.34;53.68;102117.53;5050830;27;122879;-62
2023/03/05 01:25:17;;;;;;;10.27;2.15;;;;;;;8.34;53.49;102113.16;5047786;27;108778;-62
2023/03/05 01:27:44;;;;;;;8.52;2.15;;;;;;;8.33;53.70;102114.03;5059120;27;109611;-63
2023/03/05 01:30:13;;;;;;;13.70;2.17;;;;;;;8.33;53.58;102106.09;5063435;27;123884;-63
2023/03/05 01:32:41;;;;;;;8.73;1.90;;;;;;;8.31;53.70;102102.63;5064893;27;124529;-63
2023/03/05 01:35:15;;;;;;;10.38;2.08;;;;;;;8.30;53.79;102106.16;5068125;27;110097;-62
2023/03/05 01:37:43;;;;;;;7.32;1.80;;;;;;;8.27;53.53;102100.94;5061731;27;110192;-62
2023/03/05 01:40:13;;;;;;;7.28;1.75;;;;;;;8.26;53.50;102107.09;5047647;27;122808;-64
2023/03/05 01:42:45;;;;;;;11.30;1.73;;;;;;;8.23;53.30;102099.25;5047794;27;122811;-65
2023/03/05 01:45:16;;;;;;;10.98;2.20;;;;;;;8.20;53.75;102099.28;5049605;27;108189;-65
2023/03/05 01:47:44;;;;;;;9.77;2.05;;;;;;;8.18;53.50;102087.88;5067738;27;108943;-65
2023/03/05 01:50:24;;;;;;;9.73;2.05;;;;;;;8.17;53.55;102088.75;5050756;27;122991;-65
2023/03/05 01:53:01;;;;;;;6.70;1.98;;;;;;;8.17;53.69;102083.47;5048078;27;123281;-65
2023/03/05 01:55:31;;;;;;;7.00;1.80;;;;;;;8.18;53.73;102079.97;5047681;27;108903;-65
2023/03/05 01:58:12;;;;;;;6.55;1.88;;;;;;;8.18;53.81;102072.03;5049506;27;107360;-65
2023/03/05 02:00:45;;;;;;;9.35;1.92;;;;;;;8.18;53.83;102061.47;5048778;27;123353;-65
2023/03/05 02:03:13;;;;;;;12.38;2.30;;;;;;;8.18;53.70;102069.41;5045549;27;123094;-65
2023/03/05 02:05:44;;;;;;;11.15;2.53;;;;;;;8.17;53.64;102057.09;5049122;27;108286;-64
2023/03/05 02:08:15;;;;;;;7.90;2.38;;;;;;;8.17;53.75;102057.09;5062924;27;110035;-64
2023/03/05 02:10:50;;;;;;;11.02;2.17;;;;;;;8.16;53.72;102047.44;5054072;27;123206;-65
2023/03/05 02:13:31;;;;;;;8.27;2.05;;;;;;;8.16;53.77;102050.09;5042863;27;126428;-64
2023/03/05 02:16:00;;;;;;;10.80;2.03;;;;;;;8.16;53.68;102044.81;5051267;27;109512;-64
2023/03/05 02:18:28;;;;;;;6.15;1.92;;;;;;;8.14;53.66;102030.78;5066986;27;110563;-65
2023/03/05 02:20:55;;;;;;;7.15;1.88;;;;;;;8.14;53.61;102036.03;5067807;27;124393;-64
2023/03/05 02:23:26;;;;;;;9.63;2.53;;;;;;;8.15;53.65;102032.50;5066742;22;124043;-65
2023/03/05 02:25:54;;;;;;;11.52;2.10;;;;;;;8.14;53.54;102025.50;5035223;27;109467;-65
2023/03/05 02:28:39;;;;;;;10.65;2.60;;;;;;;8.13;53.83;102023.72;5034886;27;109175;-65
2023/03/05 02:31:14;;;;;;;9.40;2.30;;;;;;;8.10;53.72;102022.03;5047764;27;124460;-65
2023/03/05 02:33:42;;;;;;;9.07;1.70;;;;;;;8.08;53.48;102015.00;5054660;27;124230;-65
2023/03/05 02:36:10;;;;;;;7.55;2.30;;;;;;;8.07;53.92;102014.16;5031278;28;108395;-65
2023/03/05 02:38:40;;;;;;;10.82;2.05;;;;;;;8.07;53.96;102002.72;5035177;27;108726;-64
2023/03/05 02:41:08;;;;;;;9.18;2.63;;;;;;;8.09;53.63;102011.50;5033893;27;123638;-65
2023/03/05 02:43:36;;;;;;;5.65;1.70;;;;;;;8.09;54.05;102001.81;5036561;27;123058;-65
2023/03/05 02:46:03;;;;;;;8.10;2.47;;;;;;;8.09;54.16;101995.66;5051322;27;109058;-65
2023/03/05 02:48:31;;;;;;;7.88;1.90;;;;;;;8.09;53.79;101991.25;5053029;27;110109;-65
2023/03/05 02:51:00;;;;;;;9.35;1.92;;;;;;;8.08;54.07;101988.63;5032842;27;123665;-65
2023/03/05 02:53:28;;;;;;;8.18;2.05;;;;;;;8.09;54.00;101990.38;5056213;27;125469;-66
2023/03/05 02:55:55;;;;;;;6.05;2.08;;;;;;;8.09;53.67;101985.97;5047346;27;108415;-65
2023/03/05 02:58:23;;;;;;;7.57;1.92;;;;;;;8.11;53.92;101993.88;5013823;27;108529;-65
2023/03/05 03:00:51;;;;;;;10.88;2.10;;;;;;;8.09;53.62;101979.81;5045659;27;123159;-65
2023/03/05 03:03:18;;;;;;;7.93;1.85;;;;;;;8.08;54.00;101978.06;5053213;27;123946;-64
2023/03/05 03:05:45;;;;;;;8.18;1.92;;;;;;;8.08;54.10;101967.50;5044036;27;109093;-64
2023/03/05 03:08:13;;;;;;;9.27;2.03;;;;;;;8.08;53.64;101967.50;5045800;27;108963;-65
2023/03/05 03:10:41;;;;;;;14.32;2.53;;;;;;;8.08;53.97;101972.78;5047404;27;124198;-64
2023/03/05 03:13:08;;;;;;;9.23;2.17;;;;;;;8.08;53.67;101970.16;5050355;27;123904;-64
2023/03/05 03:15:36;;;;;;;7.68;2.05;;;;;;;8.05;53.74;101967.59;5034560;27;109142;-64
2023/03/05 03:18:04;;;;;;;14.65;2.63;;;;;;;8.05;53.96;101957.03;5049704;27;110304;-64
2023/03/05 03:20:33;;;;;;;14.70;2.53;;;;;;;8.04;53.96;101955.28;5034357;27;123721;-65
2023/03/05 03:23:01;;;;;;;12.73;2.70;;;;;;;8.03;53.78;101958.84;5030688;27;123831;-65
2023/03/05 03:25:29;;;;;;;11.88;2.67;;;;;;;7.99;53.79;101945.69;5016120;27;108164;-64
2023/03/05 03:27:56;;;;;;;12.43;2.65;;;;;;;7.98;54.04;101938.66;5048919;27;109186;-65
2023/03/05 03:30:23;;;;;;;9.50;2.60;;;;;;;7.96;54.07;101945.72;5049371;27;124615;-65
2023/03/05 03:32:51;;;;;;;8.73;2.35;;;;;;;7.97;54.06;101947.47;5027142;27;122896;-65
2023/03/05 03:35:18;;;;;;;10.23;2.83;;;;;;;7.96;54.05;101945.72;5047998;27;109220;-65
2023/03/05 03:37:46;;;;;;;10.23;2.70;;;;;;;7.97;54.06;101944.84;5022243;27;108531;-65
2023/03/05 03:40:13;;;;;;;9.25;2.50;;;;;;;7.98;54.20;101946.56;5035966;27;123339;-65
2023/03/05 03:42:40;;;;;;;10.35;2.90;;;;;;;7.98;54.19;101946.56;5049916;27;123716;-65
2023/03/05 03:45:08;;;;;;;11.82;2.67;;;;;;;7.98;54.27;101935.16;5048156;27;108276;-65
2023/03/05 03:47:35;;;;;;;12.85;3.20;;;;;;;7.98;54.38;101935.16;5033663;27;109250;-66
2023/03/05 03:50:03;;;;;;;10.18;2.75;;;;;;;7.95;54.14;101936.06;5029136;27;123828;-65
2023/03/05 03:52:30;;;;;;;10.57;2.67;;;;;;;7.95;54.38;101935.22;5048260;27;124186;-66
2023/03/05 03:55:00;;;;;;;9.65;2.70;;;;;;;7.94;54.07;101934.31;5049457;27;109590;-65
2023/03/05 03:57:32;;;;;;;11.88;2.80;;;;;;;7.92;54.23;101928.19;5049412;27;108824;-65
2023/03/05 03:59:59;;;;;;;9.15;2.58;;;;;;;7.92;54.24;101925.56;5046868;27;124501;-65
2023/03/05 04:02:27;;;;;;;8.43;2.47;;;;;;;7.91;54.42;101929.13;5049410;27;123738;-64
2023/03/05 04:04:54;;;;;;;9.75;2.70;;;;;;;7.90;54.54;101932.63;5046698;27;110152;-64
2023/03/05 04:07:21;;;;;;;10.00;2.97;;;;;;;7.89;54.45;101920.38;5035745;27;109814;-64
2023/03/05 04:09:49;;;;;;;11.88;3.13;;;;;;;7.87;54.26;101922.13;5051837;27;124409;-64
2023/03/05 04:12:17;;;;;;;11.13;3.10;;;;;;;7.87;54.55;101916.84;5049689;27;123728;-65
2023/03/05 04:14:45;;;;;;;11.90;2.85;;;;;;;7.86;54.76;101909.84;5048277;27;109162;-65
2023/03/05 04:17:14;;;;;;;8.88;2.65;;;;;;;7.85;54.76;101905.47;5048930;27;109497;-64
2023/03/05 04:19:42;;;;;;;8.80;2.70;;;;;;;7.83;54.47;101899.34;5031865;27;124168;-64
2023/03/05 04:22:14;;;;;;;10.93;2.72;;;;;;;7.82;54.46;101900.25;5048517;27;124078;-64
2023/03/05 04:24:41;;;;;;;7.22;2.25;;;;;;;7.82;54.67;101902.88;5049955;27;109061;-65
2023/03/05 04:27:09;;;;;;;11.10;2.53;;;;;;;7.81;54.67;101895.84;5051886;27;109115;-65
2023/03/05 04:29:36;;;;;;;9.32;2.50;;;;;;;7.82;54.61;101889.69;5052190;27;124081;-65
2023/03/05 04:32:04;;;;;;;11.18;2.42;;;;;;;7.82;54.61;101892.34;5051682;27;123996;-65
2023/03/05 04:34:32;;;;;;;9.25;2.28;;;;;;;7.82;54.82;101888.81;5048094;27;109257;-64
2023/03/05 04:36:59;;;;;;;9.90;2.63;;;;;;;7.82;54.66;101884.44;5052591;27;109148;-65
2023/03/05 04:39:26;;;;;;;8.85;2.35;;;;;;;7.83;54.55;101888.78;5048158;27;124162;-64
2023/03/05 04:41:53;;;;;;;8.98;2.55;;;;;;;7.82;54.77;101887.06;5027073;27;124154;-65
2023/03/05 04:44:22;;;;;;;7.78;1.95;;;;;;;7.83;54.61;101888.78;5035032;27;108569;-64
2023/03/05 04:46:49;;;;;;;7.70;2.30;;;;;;;7.83;54.53;101888.78;5034968;27;108952;-64
2023/03/05 04:49:16;;;;;;;7.97;2.30;;;;;;;7.83;55.05;101883.50;5047805;27;124160;-64
2023/03/05 04:51:43;;;;;;;8.88;2.40;;;;;;;7.82;54.93;101881.78;5033333;27;123145;-64
2023/03/05 04:54:11;;;;;;;4.90;1.80;;;;;;;7.83;54.83;101883.50;5050288;27;109192;-64
2023/03/05 04:56:39;;;;;;;9.82;2.40;;;;;;;7.81;55.01;101882.66;5050460;27;111034;-64
2023/03/05 04:59:06;;;;;;;8.45;2.10;;;;;;;7.79;54.79;101872.16;5050189;27;124783;-65
2023/03/05 05:01:34;;;;;;;5.13;2.10;;;;;;;7.78;54.57;101870.41;5053925;27;124190;-64
2023/03/05 05:04:01;;;;;;;6.03;2.15;;;;;;;7.79;54.88;101866.00;5045560;27;109317;-64
2023/03/05 05:06:29;;;;;;;9.70;2.08;;;;;;;7.79;54.69;101868.66;5033444;27;108953;-64
2023/03/05 05:08:56;;;;;;;6.18;2.15;;;;;;;7.78;54.54;101865.16;5049833;27;124371;-64
2023/03/05 05:11:24;;;;;;;4.55;1.90;;;;;;;7.77;55.02;101865.16;5047640;27;123779;-64
2023/03/05 05:13:51;;;;;;;6.13;2.05;;;;;;;7.79;54.60;101866.88;5052091;27;108385;-65
2023/03/05 05:16:18;;;;;;;5.30;1.85;;;;;;;7.78;54.92;101856.38;5049243;27;109036;-64
2023/03/05 05:18:46;;;;;;;8.68;2.25;;;;;;;7.79;54.64;101855.47;5031356;27;122759;-65
2023/03/05 05:21:14;;;;;;;5.15;1.83;;;;;;;7.79;54.83;101850.19;5047463;27;124293;-64
2023/03/05 05:23:41;;;;;;;8.52;2.10;;;;;;;7.79;54.74;101850.19;5054907;27;109518;-64
2023/03/05 05:26:13;;;;;;;9.25;2.05;;;;;;;7.80;54.81;101846.66;5031998;27;108232;-64
2023/03/05 05:28:42;;;;;;;8.60;2.28;;;;;;;7.81;54.84;101848.38;5043889;27;124031;-66
2023/03/05 05:31:11;;;;;;;7.38;1.80;;;;;;;7.80;54.73;101846.66;5046383;27;123724;-65
2023/03/05 05:33:39;;;;;;;13.73;2.33;;;;;;;7.82;54.90;101842.22;5051756;27;109675;-65
2023/03/05 05:36:09;;;;;;;6.95;2.25;;;;;;;7.80;55.05;101846.66;5048097;27;109441;-65
2023/03/05 05:38:37;;;;;;;7.43;1.90;;;;;;;7.79;54.95;101834.38;5048516;27;124202;-65
2023/03/05 05:41:08;;;;;;;6.80;1.90;;;;;;;7.80;55.25;101836.13;5052160;27;124197;-65
2023/03/05 05:43:36;;;;;;;7.32;1.88;;;;;;;7.80;54.89;101836.13;5049591;27;110407;-65
2023/03/05 05:46:06;;;;;;;6.53;2.17;;;;;;;7.80;54.97;101841.41;5046291;27;109591;-65
2023/03/05 05:48:35;;;;;;;12.50;2.42;;;;;;;7.79;55.06;101834.38;5050590;27;124300;-65
2023/03/05 05:51:11;;;;;;;7.13;1.85;;;;;;;7.80;54.86;101836.13;5048944;27;124417;-66
2023/03/05 05:53:38;;;;;;;5.45;1.65;;;;;;;7.79;54.77;101829.09;5052516;27;109252;-66
2023/03/05 05:56:08;;;;;;;5.13;1.92;;;;;;;7.78;54.98;101822.09;5047185;27;109310;-66
2023/03/05 05:58:36;;;;;;;6.95;1.67;;;;;;;7.77;54.84;101825.59;5033232;27;124321;-65
2023/03/05 06:01:27;;;;;;;8.73;1.95;;;;;;;7.75;54.96;101822.13;5053759;27;124129;-65
2023/03/05 06:03:55;;;;;;;6.32;1.77;;;;;;;7.74;54.97;101830.94;5051634;27;109283;-65
2023/03/05 06:06:24;;;;;;;9.27;1.90;;;;;;;7.73;55.00;101818.66;5050213;27;109598;-65
2023/03/05 06:08:52;;;;;;;9.90;2.20;;;;;;;7.72;54.85;101816.91;5041327;27;124099;-65
2023/03/05 06:11:20;;;;;;;7.32;2.35;;;;;;;7.73;54.93;101818.66;5041394;27;123989;-64
2023/03/05 06:13:48;;;;;;;10.02;1.98;;;;;;;7.73;54.96;101818.66;5052207;27;109357;-64
2023/03/05 06:16:18;;;;;;;7.03;2.10;;;;;;;7.73;54.77;101819.53;5051946;27;109766;-63
2023/03/05 06:18:46;;;;;;;6.75;2.20;;;;;;;7.73;54.77;101818.66;5049483;27;124662;-63
2023/03/05 06:21:15;;;;;;;6.10;2.53;;;;;;;7.73;54.74;101818.66;5024165;27;124073;-64
2023/03/05 06:23:44;;;;;;;11.05;2.63;;;;;;;7.73;54.88;101813.38;5047192;27;109434;-63
2023/03/05 06:26:14;;;;;;;11.50;2.50;;;;;;;7.71;55.02;101817.81;5049620;27;109751;-63
2023/03/05 06:28:42;;;;;;;5.53;2.47;;;;;;;7.72;55.10;101815.16;5041864;27;124327;-65
2023/03/05 06:31:11;;;;;;;6.75;2.92;;;;;;;7.72;54.93;101817.78;5044693;27;124549;-65
2023/03/05 06:33:39;;;;;;;8.25;3.00;;;;;;;7.72;54.87;101816.91;5033022;27;109259;-65
2023/03/05 06:36:12;;;;;;;10.20;3.33;;;;;;;7.69;54.84;101812.56;5050639;27;109878;-65
2023/03/05 06:38:40;;;;;;;10.30;3.30;;;;;;;7.70;55.12;101816.06;5042803;27;123864;-65
2023/03/05 06:41:15;;;;;;;11.32;3.70;;;;;;;7.70;55.03;101818.69;5040955;27;124571;-65
2023/03/05 06:43:43;;;;;;;11.00;3.65;;;;;;;7.71;54.94;101815.19;5051791;27;109200;-63
2023/03/05 06:46:14;;;;;;;11.35;3.53;;;;;;;7.70;54.90;101808.16;5036284;27;109323;-63
2023/03/05 06:48:42;;;;;;;11.27;3.88;;;;;;;7.71;54.98;101813.41;5050996;27;124005;-64
2023/03/05 06:51:17;;;;;;;13.23;4.10;;;;;;;7.70;55.14;101814.28;5046414;27;123902;-64
2023/03/05 06:53:46;;;;;;;10.65;4.18;;;;;;;7.71;54.91;101809.91;5036910;27;108484;-64
2023/03/05 06:56:16;;;;;;;12.25;4.32;;;;;;;7.70;54.98;101813.41;5037370;27;109064;-64
2023/03/05 06:58:45;;;;;;;9.32;3.85;;;;;;;7.71;55.20;101812.53;5033303;27;124443;-63
2023/03/05 07:01:13;;;;;;;11.00;4.43;;;;;;;7.72;54.95;101816.91;5040557;27;123428;-63
2023/03/05 07:03:41;;;;;;;9.82;3.63;;;;;;;7.72;55.50;101816.91;5043446;27;109075;-63
2023/03/05 07:06:12;;;;;;;9.02;3.58;;;;;;;7.75;55.33;101816.84;5041185;27;108141;-63
2023/03/05 07:08:39;;;;;;;7.22;3.55;;;;;;;7.76;55.33;101815.94;5027581;27;123171;-63
2023/03/05 07:11:18;;;;;;;10.10;4.30;;;;;;;7.78;55.50;101811.53;5036087;27;124692;-63
2023/03/05 07:13:49;;;;;;;8.18;3.65;;;;;;;7.78;55.43;101809.75;5047155;27;109075;-63
2023/03/05 07:16:19;;;;;;;11.93;3.75;;;;;;;7.80;55.33;101810.59;5050722;27;108768;-63
2023/03/05 07:18:46;;;;;;;8.13;4.13;;;;;;;7.81;55.67;101806.19;5055887;27;122981;-64
2023/03/05 07:21:18;;;;;;;10.35;4.65;;;;;;;7.81;55.61;101806.19;5049412;27;125431;-64
2023/03/05 07:23:45;;;;;;;9.15;4.40;;;;;;;7.82;55.29;101802.69;5054996;27;109722;-63
2023/03/05 07:26:13;;;;;;;7.68;4.25;;;;;;;7.83;55.57;101804.41;5036989;27;109770;-63
2023/03/05 07:28:41;;;;;;;8.50;4.18;;;;;;;7.85;55.35;101801.72;5038522;27;124568;-63
2023/03/05 07:31:14;;;;;;;6.93;4.25;;;;;;;7.87;55.82;101806.06;5053523;27;123886;-63
2023/03/05 07:33:42;;;;;;;10.18;4.25;;;;;;;7.90;55.81;101800.75;5037215;27;108445;-62
2023/03/05 07:36:10;;;;;;;10.90;4.00;;;;;;;7.91;55.59;101797.22;5052886;27;109625;-62
2023/03/05 07:38:37;;;;;;;7.93;4.35;;;;;;;7.95;55.64;101803.31;5065973;27;124955;-62
2023/03/05 07:41:08;;;;;;;8.60;4.60;;;;;;;7.98;55.61;101804.09;5042191;27;123678;-62
2023/03/05 07:43:36;;;;;;;8.10;3.85;;;;;;;8.01;55.53;101807.63;5043350;27;109051;-62
2023/03/05 07:46:05;;;;;;;10.40;4.30;;;;;;;8.00;55.68;101806.72;5052307;27;108676;-62
2023/03/05 07:48:33;;;;;;;8.70;3.95;;;;;;;8.03;55.50;101800.53;5041706;27;124490;-64
2023/03/05 07:51:05;;;;;;;9.32;4.00;;;;;;;8.05;55.80;101804.00;5035307;27;123969;-65
2023/03/05 07:53:33;;;;;;;7.32;3.75;;;;;;;8.07;55.82;101794.28;5036932;27;109787;-64
2023/03/05 07:56:01;;;;;;;9.32;3.30;;;;;;;8.10;55.74;101788.94;5033334;27;109068;-64
2023/03/05 07:58:28;;;;;;;7.05;3.90;;;;;;;8.14;55.72;101798.56;5034565;27;124037;-62
2023/03/05 08:00:55;;;;;;;9.77;3.97;;;;;;;8.19;55.83;101791.41;5039380;27;123869;-62
2023/03/05 08:03:23;;;;;;;5.82;3.25;;;;;;;8.24;55.54;101789.56;5035076;27;113179;-62
2023/03/05 08:05:50;;;;;;;7.88;3.83;;;;;;;8.30;55.56;101789.41;5040776;27;112999;-62
2023/03/05 08:08:17;;;;;;;9.07;3.78;;;;;;;8.33;55.81;101793.78;5028531;27;124618;-62
2023/03/05 08:10:44;;;;;;;6.88;3.42;;;;;;;8.36;55.64;101786.69;5041885;27;124552;-62
2023/03/05 08:13:12;;;;;;;6.20;3.08;;;;;;;8.39;55.83;101783.94;5070664;27;115726;-62
2023/03/05 08:15:39;;;;;;;7.15;3.45;;;;;;;8.43;55.39;101784.78;5042818;27;114938;-62
2023/03/05 08:18:06;;;;;;;10.55;3.33;;;;;;;8.47;55.79;101780.31;5027534;28;123872;-62
2023/03/05 08:20:35;;;;;;;7.85;3.63;;;;;;;8.49;55.40;101773.25;5036374;27;123360;-62
2023/03/05 08:23:02;;;;;;;7.18;3.50;;;;;;;8.52;55.75;101778.47;5033609;27;114245;-62
2023/03/05 08:25:30;;;;;;;6.35;3.00;;;;;;;8.56;55.66;101770.44;5032579;27;114631;-62
2023/03/05 08:27:57;;;;;;;5.40;2.70;;;;;;;8.58;55.72;101767.75;5025532;28;123890;-62
2023/03/05 08:30:26;;;;;;;6.13;2.95;;;;;;;8.61;55.87;101778.28;5036371;27;124633;-62
2023/03/05 08:32:54;;;;;;;5.03;2.50;;;;;;;8.63;55.27;101771.19;5040472;27;114579;-63
2023/03/05 08:35:22;;;;;;;4.72;2.65;;;;;;;8.66;55.48;101770.22;5049335;27;114948;-62
2023/03/05 08:37:49;;;;;;;6.53;2.63;;;;;;;8.67;55.30;101775.47;5059561;27;124070;-62
2023/03/05 08:40:17;;;;;;;6.10;2.50;;;;;;;8.67;55.41;101767.56;5034479;27;124301;-62
2023/03/05 08:42:44;;;;;;;4.97;2.42;;;;;;;8.67;55.30;101766.69;5050166;27;114486;-62
2023/03/05 08:45:12;;;;;;;8.13;2.50;;;;;;;8.68;55.42;101758.75;5051165;27;113921;-62
2023/03/05 08:47:39;;;;;;;7.05;2.80;;;;;;;8.71;55.42;101763.94;5059019;27;124353;-62
2023/03/05 08:50:07;;;;;;;6.05;2.42;;;;;;;8.76;55.67;101761.22;5063625;27;124346;-62
2023/03/05 08:52:34;;;;;;;3.95;2.03;;;;;;;8.81;55.37;101763.72;5058414;27;114636;-62
2023/03/05 08:55:02;;;;;;;7.38;2.55;;;;;;;8.83;55.53;101761.94;5049004;27;114815;-62
2023/03/05 08:57:29;;;;;;;4.43;2.60;;;;;;;8.85;55.59;101749.53;5030531;27;124366;-62
2023/03/05 08:59:57;;;;;;;5.95;2.22;;;;;;;8.88;55.57;101745.06;5047669;27;124093;-63
2023/03/05 09:02:24;;;;;;;6.10;2.10;;;;;;;8.93;55.58;101747.63;5059919;27;115270;-62
2023/03/05 09:04:51;;;;;;;4.30;2.05;;;;;;;8.98;55.71;101740.44;5061909;27;114876;-62
2023/03/05 09:07:18;;;;;;;7.65;2.40;;;;;;;9.04;55.63;101745.59;5048017;27;123929;-62
2023/03/05 09:09:45;;;;;;;3.80;2.60;;;;;;;9.11;55.50;101741.88;5048179;27;124840;-62
2023/03/05 09:12:14;;;;;;;7.35;2.85;;;;;;;9.20;55.75;101745.22;5049188;27;114546;-62
2023/03/05 09:14:42;;;;;;;8.63;3.20;;;;;;;9.27;55.64;101731.78;5043114;27;114626;-62
2023/03/05 09:17:09;;;;;;;6.25;3.00;;;;;;;9.32;55.32;101734.31;5060164;27;124263;-62
2023/03/05 09:19:36;;;;;;;5.43;2.92;;;;;;;9.37;55.10;101731.56;5043255;27;124176;-62
2023/03/05 09:22:03;;;;;;;6.22;2.95;;;;;;;9.43;55.30;101737.53;5051010;27;113298;-62
2023/03/05 09:24:30;;;;;;;8.02;3.33;;;;;;;9.48;55.39;101735.66;5060778;27;113831;-62
2023/03/05 09:26:59;;;;;;;4.78;3.00;;;;;;;9.52;55.20;101726.72;5047278;27;123841;-62
2023/03/05 09:29:26;;;;;;;7.28;3.10;;;;;;;9.57;55.11;101723.09;5058985;27;124250;-62
2023/03/05 09:31:53;;;;;;;5.00;3.03;;;;;;;9.61;55.16;101724.78;5064384;27;114525;-62
2023/03/05 09:34:21;;;;;;;6.13;2.95;;;;;;;9.64;55.14;101709.66;5048426;27;114036;-63
2023/03/05 09:36:49;;;;;;;4.18;2.85;;;;;;;9.68;54.77;101710.44;5020617;27;123136;-62
2023/03/05 09:39:16;;;;;;;8.80;3.90;;;;;;;9.71;54.75;101715.66;5045500;27;123702;-62
2023/03/05 09:42:08;;;;;;;5.72;3.38;;;;;;;9.73;54.65;101708.53;5034747;27;114382;-62
2023/03/05 09:44:40;;;;;;;5.45;3.95;;;;;;;9.75;54.80;101712.00;5048603;27;114009;-62
2023/03/05 09:47:18;;;;;;;6.18;3.53;;;;;;;9.72;54.59;101702.41;5069379;27;124151;-62
2023/03/05 09:50:03;;;;;;;7.13;3.53;;;;;;;9.71;54.37;101702.44;5035629;27;123758;-62
2023/03/05 09:52:40;;;;;;;7.65;3.88;;;;;;;9.69;54.22;101696.31;5058442;27;115652;-65
2023/03/05 09:55:13;;;;;;;8.43;3.70;;;;;;;9.68;54.45;101702.50;5036190;27;115234;-64
2023/03/05 09:57:45;;;;;;;6.55;3.72;;;;;;;9.69;54.31;101701.63;5063199;27;124074;-64
2023/03/05 10:00:44;;;;;;;8.50;4.07;;;;;;;9.70;54.53;101698.03;5048310;27;123384;-65
2023/03/05 10:03:21;;;;;;;6.68;3.17;;;;;;;9.73;54.49;101692.69;5049204;27;114855;-64
2023/03/05 10:06:05;;;;;;;5.35;2.95;;;;;;;9.79;54.58;101692.50;5060670;27;113779;-65
2023/03/05 10:08:44;;;;;;;4.15;2.28;;;;;;;9.84;54.20;101690.59;5036547;27;124075;-64
2023/03/05 10:11:52;;;;;;;4.72;2.50;;;;;;;9.85;54.14;101687.06;5064445;27;124213;-62
2023/03/05 10:14:32;;;;;;;5.03;2.53;;;;;;;9.86;54.23;101694.06;5020755;27;114363;-62
2023/03/05 10:17:20;;;;;;;3.88;2.20;;;;;;;9.87;53.91;101682.59;5056668;27;113955;-62
2023/03/05 10:20:13;;;;;;;5.38;2.38;;;;;;;9.87;53.84;101679.06;5046786;27;124169;-62
2023/03/05 10:23:03;;;;;;;4.80;2.38;;;;;;;9.85;53.92;101689.69;5053050;27;124001;-62
2023/03/05 10:25:45;;;;;;;4.72;2.60;;;;;;;9.82;53.58;101691.56;5048926;27;114284;-62
2023/03/05 10:28:18;;;;;;;4.20;2.40;;;;;;;9.75;53.67;101680.28;5029526;27;113505;-62
2023/03/05 10:31:24;;;;;;;6.03;2.42;;;;;;;9.66;53.57;101686.72;5045591;27;124221;-62
2023/03/05 10:34:20;;;;;;;3.72;1.92;;;;;;;9.55;53.52;101681.69;5032854;27;122963;-62
2023/03/05 10:37:02;;;;;;;2.80;1.80;;;;;;;9.42;53.63;101682.94;5035036;27;114797;-62
2023/03/05 10:39:41;;;;;;;2.28;1.58;;;;;;;9.32;53.85;101697.31;5029862;27;112888;-62
2023/03/05 10:42:26;;;;;;;2.38;1.40;;;;;;;9.15;53.68;101685.41;5063997;27;124987;-62
2023/03/05 10:45:11;;;;;;;3.60;1.48;;;;;;;9.03;53.76;101679.56;5049238;27;124677;-62
2023/03/05 10:47:49;;;;;;;3.58;1.70;;;;;;;8.97;54.26;101670.00;5050101;27;115538;-62
2023/03/05 10:50:23;;;;;;;6.53;1.90;;;;;;;8.98;54.88;101671.72;5053651;27;114726;-63
2023/03/05 10:53:06;;;;;;;2.63;1.70;;;;;;;9.01;54.85;101666.38;5057836;27;124162;-63
2023/03/05 10:55:33;;;;;;;3.08;1.80;;;;;;;9.04;54.94;101661.03;5047261;27;123800;-63
2023/03/05 10:58:11;;;;;;;4.68;2.40;;;;;;;9.09;55.16;101659.13;5038472;27;114160;-63
2023/03/05 11:00:39;;;;;;;3.05;2.08;;;;;;;9.15;55.18;101648.41;5049939;27;115040;-63
2023/03/05 11:03:09;;;;;;;3.78;2.03;;;;;;;9.22;55.28;101648.25;5051212;27;124009;-63
2023/03/05 11:06:00;;;;;;;3.55;1.92;;;;;;;9.30;55.44;101652.41;5041817;27;123153;-62
2023/03/05 11:08:30;;;;;;;3.92;1.90;;;;;;;9.39;55.44;101651.28;5037093;27;113613;-63
2023/03/05 11:11:10;;;;;;;2.75;1.63;;;;;;;9.46;55.59;101639.66;5055704;27;113886;-62
2023/03/05 11:13:54;;;;;;;3.13;1.75;;;;;;;9.53;55.29;101641.22;5045132;27;122805;-62
2023/03/05 11:16:26;;;;;;;4.88;1.85;;;;;;;9.61;55.76;101645.44;5061083;27;124130;-66
2023/03/05 11:19:28;;;;;;;4.65;1.98;;;;;;;9.69;55.47;101635.47;5037069;27;114316;-66
2023/03/05 11:22:07;;;;;;;3.45;1.80;;;;;;;9.77;55.67;101630.81;5012817;27;113657;-62
2023/03/05 11:24:34;;;;;;;2.67;1.27;;;;;;;9.83;55.54;101630.69;5040786;27;123868;-62
2023/03/05 11:27:20;;;;;;;2.20;1.20;;;;;;;9.86;55.71;101627.06;5044214;27;124599;-62
2023/03/05 11:29:48;;;;;;;3.72;1.55;;;;;;;9.94;55.55;101618.00;5047564;27;115154;-66
2023/03/05 11:32:20;;;;;;;2.63;1.40;;;;;;;10.01;56.01;101612.50;5040929;27;114613;-62
2023/03/05 11:34:48;;;;;;;3.90;1.33;;;;;;;10.08;55.66;101611.41;5048682;27;124846;-63
2023/03/05 11:37:23;;;;;;;2.65;1.38;;;;;;;10.14;55.56;101609.44;5037279;27;124265;-62